Time;durP1;ratioP1;P1;durP2;ratioP2;P2;SDS_P1;SDS_P2;PMS_P1;PMS_P2;Temp;Humidity;BMP_temperature;BMP_pressure;BME280_temperature;BME280_humidity;BME280_pressure;Samples;Min_cycle;Max_cycle;Signal;HPM_P1;HPM_P2
2023/03/16 00:00:08;;;;;;;6.90;3.53;;;1.70;99.90;;;;;;4996244;28;20512;-73
2023/03/16 00:02:36;;;;;;;10.87;4.67;;;1.70;99.90;;;;;;4994328;28;20481;-72
2023/03/16 00:05:06;;;;;;;7.13;2.90;;;1.70;99.90;;;;;;4999684;28;21002;-72
2023/03/16 00:07:34;;;;;;;6.53;3.57;;;1.60;99.90;;;;;;4994053;28;20464;-72
2023/03/16 00:10:02;;;;;;;5.33;3.40;;;1.60;99.90;;;;;;4994044;28;20504;-72
2023/03/16 00:12:33;;;;;;;4.63;3.20;;;1.60;99.90;;;;;;4991153;28;20487;-72
2023/03/16 00:15:01;;;;;;;4.20;3.10;;;1.50;99.90;;;;;;4994824;28;20475;-72
2023/03/16 00:17:29;;;;;;;5.23;3.17;;;1.50;99.90;;;;;;4997802;28;20969;-72
2023/03/16 00:19:57;;;;;;;6.53;3.03;;;1.50;99.90;;;;;;4994207;28;20500;-72
2023/03/16 00:22:28;;;;;;;5.87;2.90;;;1.50;99.90;;;;;;4993078;28;20499;-72
2023/03/16 00:24:57;;;;;;;5.97;3.23;;;1.50;99.90;;;;;;4992199;28;20472;-72
2023/03/16 00:27:26;;;;;;;4.30;2.73;;;1.60;99.90;;;;;;4989764;28;20481;-72
2023/03/16 00:29:55;;;;;;;4.93;2.90;;;1.60;99.90;;;;;;4990153;28;21128;-72
2023/03/16 00:32:25;;;;;;;6.50;3.10;;;1.60;99.90;;;;;;4993806;28;20957;-71
2023/03/16 00:34:54;;;;;;;4.93;3.03;;;1.60;99.90;;;;;;4995571;28;20496;-72
2023/03/16 00:37:23;;;;;;;4.30;3.43;;;1.50;99.90;;;;;;4992448;28;20481;-70
2023/03/16 00:39:54;;;;;;;6.50;3.27;;;1.50;99.90;;;;;;4994766;28;20496;-71
2023/03/16 00:42:26;;;;;;;6.20;3.20;;;1.50;99.90;;;;;;4993379;28;20571;-72
2023/03/16 00:44:56;;;;;;;6.97;4.00;;;1.50;99.90;;;;;;4995544;28;20479;-71
2023/03/16 00:47:25;;;;;;;6.20;3.57;;;1.40;99.90;;;;;;4996151;28;20480;-71
2023/03/16 00:49:53;;;;;;;6.23;3.30;;;1.40;99.90;;;;;;4998227;28;20585;-71
2023/03/16 00:52:22;;;;;;;5.27;3.00;;;1.40;99.90;;;;;;4995268;28;20508;-71
2023/03/16 00:54:51;;;;;;;4.43;3.00;;;1.40;99.90;;;;;;4994174;28;20826;-71
2023/03/16 00:57:23;;;;;;;6.50;2.90;;;1.40;99.90;;;;;;4994756;28;20479;-72
2023/03/16 00:59:52;;;;;;;6.23;3.23;;;1.30;99.90;;;;;;4994348;28;20491;-71
2023/03/16 01:02:22;;;;;;;8.00;3.20;;;1.30;99.90;;;;;;4993307;28;20489;-72
2023/03/16 01:04:53;;;;;;;6.43;2.70;;;1.20;99.90;;;;;;4994628;28;20480;-72
2023/03/16 01:07:21;;;;;;;4.90;3.30;;;1.20;99.90;;;;;;4996800;28;20526;-72
2023/03/16 01:09:49;;;;;;;5.43;2.93;;;1.20;99.90;;;;;;4996929;28;20484;-72
2023/03/16 01:12:19;;;;;;;7.77;2.90;;;1.10;99.90;;;;;;4987261;28;20496;-72
2023/03/16 01:14:48;;;;;;;4.73;2.60;;;1.10;99.90;;;;;;4990507;28;20860;-72
2023/03/16 01:17:17;;;;;;;5.50;3.20;;;1.10;99.90;;;;;;4992324;28;20475;-72
2023/03/16 01:19:46;;;;;;;6.43;3.20;;;1.10;99.90;;;;;;4989783;28;20504;-71
2023/03/16 01:22:15;;;;;;;6.40;2.97;;;1.00;99.90;;;;;;4991251;28;20499;-71
2023/03/16 01:24:45;;;;;;;5.20;2.90;;;1.00;99.90;;;;;;4998314;28;20477;-72
2023/03/16 01:27:14;;;;;;;4.17;2.80;;;1.00;99.90;;;;;;4993368;28;20529;-72
2023/03/16 01:29:43;;;;;;;11.40;3.40;;;1.00;99.90;;;;;;4993841;28;20883;-72
2023/03/16 01:32:13;;;;;;;5.47;3.13;;;0.90;99.90;;;;;;4991440;28;20488;-71
2023/03/16 01:34:41;;;;;;;5.63;3.10;;;0.90;99.90;;;;;;4992753;28;21184;-72
2023/03/16 01:37:09;;;;;;;3.53;2.83;;;0.90;99.90;;;;;;4995083;28;20559;-71
2023/03/16 01:39:37;;;;;;;5.40;3.50;;;0.90;99.90;;;;;;4992720;28;20488;-72
2023/03/16 01:42:05;;;;;;;11.13;3.97;;;0.90;99.90;;;;;;4998158;28;20488;-72
2023/03/16 01:44:50;;;;;;;4.83;3.80;;;0.90;99.90;;;;;;4995864;28;20507;-72
2023/03/16 01:47:19;;;;;;;4.70;3.87;;;0.90;99.90;;;;;;4996242;28;20472;-72
2023/03/16 01:49:47;;;;;;;6.20;4.40;;;0.90;99.90;;;;;;4996470;28;20499;-72
2023/03/16 01:52:19;;;;;;;8.70;3.60;;;0.90;99.90;;;;;;4992597;28;20483;-72
2023/03/16 01:54:50;;;;;;;9.83;4.20;;;0.80;99.90;;;;;;4997246;28;20480;-72
2023/03/16 01:57:21;;;;;;;9.10;4.77;;;0.80;99.90;;;;;;4997049;28;20479;-72
2023/03/16 01:59:53;;;;;;;9.73;5.30;;;0.90;99.90;;;;;;4997493;28;20496;-71
2023/03/16 02:02:26;;;;;;;9.47;5.13;;;0.90;99.90;;;;;;5002249;28;21001;-72
2023/03/16 02:05:01;;;;;;;6.70;4.80;;;0.90;99.90;;;;;;4998169;28;20504;-72
2023/03/16 02:07:34;;;;;;;6.67;4.50;;;0.80;99.90;;;;;;4997004;28;20978;-72
2023/03/16 02:10:03;;;;;;;10.53;5.80;;;0.80;99.90;;;;;;4995532;28;20492;-72
2023/03/16 02:12:32;;;;;;;8.33;5.83;;;0.80;99.90;;;;;;4996949;28;20586;-73
2023/03/16 02:15:00;;;;;;;7.03;5.00;;;0.90;99.90;;;;;;4998092;28;20823;-71
2023/03/16 02:17:31;;;;;;;8.73;5.00;;;0.80;99.90;;;;;;4993160;28;20480;-71
2023/03/16 02:20:10;;;;;;;8.57;5.93;;;0.80;99.90;;;;;;5000869;28;20511;-72
2023/03/16 02:22:42;;;;;;;9.33;5.50;;;0.80;99.90;;;;;;4988624;28;21030;-71
2023/03/16 02:25:10;;;;;;;8.90;5.30;;;0.70;99.90;;;;;;4991344;28;20499;-72
2023/03/16 02:27:48;;;;;;;8.90;6.83;;;0.70;99.90;;;;;;4992268;28;20480;-72
2023/03/16 02:30:18;;;;;;;13.03;6.50;;;0.70;99.90;;;;;;4988529;28;20485;-72
2023/03/16 02:32:50;;;;;;;8.33;5.87;;;0.70;99.90;;;;;;4989087;28;20493;-73
2023/03/16 02:35:18;;;;;;;6.67;5.97;;;0.70;99.90;;;;;;4991936;28;21015;-72
2023/03/16 02:37:46;;;;;;;11.00;6.67;;;0.70;99.90;;;;;;4988274;28;20477;-73
2023/03/16 02:40:21;;;;;;;8.10;5.93;;;0.70;99.90;;;;;;4992257;28;20934;-72
2023/03/16 02:42:56;;;;;;;10.10;5.90;;;0.70;99.90;;;;;;4967755;28;20480;-72
2023/03/16 02:45:28;;;;;;;8.13;6.80;;;0.70;99.90;;;;;;4969388;28;20476;-72
2023/03/16 02:48:02;;;;;;;8.13;6.33;;;0.70;99.90;;;;;;4972053;28;20481;-72
2023/03/16 02:50:30;;;;;;;10.30;6.47;;;0.70;99.90;;;;;;4973820;28;20493;-72
2023/03/16 02:52:58;;;;;;;9.63;6.33;;;0.80;99.90;;;;;;4967733;28;20487;-71
2023/03/16 02:55:26;;;;;;;10.20;6.10;;;0.80;99.90;;;;;;4970937;28;20848;-72
2023/03/16 02:57:54;;;;;;;7.10;5.73;;;0.80;99.90;;;;;;4969290;28;20473;-71
2023/03/16 03:00:23;;;;;;;7.80;5.80;;;0.80;99.90;;;;;;4972501;28;21076;-71
2023/03/16 03:02:52;;;;;;;6.70;5.40;;;0.80;99.90;;;;;;4992737;28;20487;-72
2023/03/16 03:05:20;;;;;;;7.70;5.10;;;0.80;99.90;;;;;;4993309;28;21302;-72
2023/03/16 03:07:48;;;;;;;7.37;5.90;;;0.80;99.90;;;;;;4993737;28;20468;-71
2023/03/16 03:10:18;;;;;;;9.47;5.97;;;0.80;99.90;;;;;;4994417;28;20582;-71
2023/03/16 03:12:48;;;;;;;11.70;6.37;;;0.80;99.90;;;;;;4992973;28;20491;-72
2023/03/16 03:15:17;;;;;;;6.70;5.63;;;0.80;99.90;;;;;;4999027;28;20479;-72
2023/03/16 03:17:45;;;;;;;5.27;4.80;;;0.80;99.90;;;;;;4997398;28;20507;-71
2023/03/16 03:20:15;;;;;;;6.97;4.63;;;0.70;99.90;;;;;;4999365;28;20492;-71
2023/03/16 03:22:44;;;;;;;9.80;5.40;;;0.70;99.90;;;;;;4997045;28;21001;-73
2023/03/16 03:25:13;;;;;;;6.07;5.37;;;0.70;99.90;;;;;;5003136;28;20503;-72
2023/03/16 03:27:42;;;;;;;7.83;4.90;;;0.70;99.90;;;;;;4999270;28;20472;-71
2023/03/16 03:30:13;;;;;;;5.13;4.40;;;0.80;99.90;;;;;;4995782;28;20496;-73
2023/03/16 03:32:41;;;;;;;5.67;4.93;;;0.80;99.90;;;;;;4992211;28;20579;-72
2023/03/16 03:35:11;;;;;;;6.63;4.53;;;0.80;99.90;;;;;;4995835;28;21264;-71
2023/03/16 03:37:43;;;;;;;6.27;4.30;;;0.80;99.90;;;;;;4988923;28;20460;-72
2023/03/16 03:40:13;;;;;;;5.20;4.60;;;0.80;99.90;;;;;;5001232;28;21105;-71
2023/03/16 03:42:42;;;;;;;7.63;4.83;;;0.80;99.90;;;;;;4998035;28;21315;-72
2023/03/16 03:45:12;;;;;;;5.97;5.27;;;0.80;99.90;;;;;;4998613;28;20493;-72
2023/03/16 03:47:41;;;;;;;6.83;4.10;;;0.80;99.90;;;;;;4999739;28;20469;-72
2023/03/16 03:50:10;;;;;;;5.53;4.30;;;0.80;99.90;;;;;;5001000;28;20491;-71
2023/03/16 03:52:40;;;;;;;6.20;4.30;;;0.80;99.90;;;;;;4999854;28;20488;-71
2023/03/16 03:55:09;;;;;;;8.73;4.50;;;0.80;99.90;;;;;;4999174;28;20479;-72
2023/03/16 03:57:37;;;;;;;5.30;4.17;;;0.80;99.90;;;;;;4997126;28;20508;-71
2023/03/16 04:00:10;;;;;;;7.30;4.80;;;0.80;99.90;;;;;;5000874;28;20546;-71
2023/03/16 04:02:38;;;;;;;6.80;4.60;;;0.90;99.90;;;;;;4998865;28;21025;-71
2023/03/16 04:05:07;;;;;;;5.33;4.13;;;0.90;99.90;;;;;;5003537;28;20528;-72
2023/03/16 04:07:35;;;;;;;5.63;4.20;;;0.90;99.90;;;;;;4996637;28;20468;-72
2023/03/16 04:10:07;;;;;;;5.37;4.40;;;0.90;99.90;;;;;;5002188;28;20502;-71
2023/03/16 04:12:35;;;;;;;5.83;4.73;;;0.90;99.90;;;;;;4999208;28;20501;-72
2023/03/16 04:15:04;;;;;;;6.03;4.60;;;0.80;99.90;;;;;;4999119;28;21005;-72
2023/03/16 04:17:33;;;;;;;7.13;4.80;;;0.80;99.90;;;;;;4999179;28;20556;-72
2023/03/16 04:20:03;;;;;;;5.03;4.40;;;0.80;99.90;;;;;;5000317;28;20678;-72
2023/03/16 04:22:32;;;;;;;6.00;4.27;;;0.80;99.90;;;;;;4998680;28;20497;-71
2023/03/16 04:25:01;;;;;;;6.33;3.80;;;0.80;99.90;;;;;;4999553;28;21024;-72
2023/03/16 04:27:35;;;;;;;6.70;4.20;;;0.80;99.90;;;;;;4999938;28;20758;-72
2023/03/16 04:30:04;;;;;;;7.10;4.50;;;0.80;99.90;;;;;;4999194;28;21088;-72
2023/03/16 04:32:32;;;;;;;12.47;5.20;;;0.80;99.90;;;;;;5003950;28;20493;-72
2023/03/16 04:35:00;;;;;;;4.87;4.20;;;0.80;99.90;;;;;;5001125;28;20525;-71
2023/03/16 04:37:28;;;;;;;5.83;4.27;;;0.80;99.90;;;;;;4999141;28;20478;-72
2023/03/16 04:39:56;;;;;;;5.50;3.83;;;0.70;99.90;;;;;;5002048;28;20492;-72
2023/03/16 04:42:24;;;;;;;4.67;4.17;;;0.70;99.90;;;;;;4999692;28;20502;-72
2023/03/16 04:44:54;;;;;;;6.40;4.50;;;0.70;99.90;;;;;;4998808;28;20550;-72
2023/03/16 04:47:23;;;;;;;7.17;4.37;;;0.70;99.90;;;;;;4999621;28;20480;-73
2023/03/16 04:49:50;;;;;;;5.07;4.57;;;0.70;99.90;;;;;;5000161;28;20522;-72
2023/03/16 04:52:18;;;;;;;7.73;3.77;;;0.70;99.90;;;;;;4996957;28;20488;-72
2023/03/16 04:54:46;;;;;;;4.50;4.10;;;0.70;99.90;;;;;;4992703;28;20472;-72
2023/03/16 04:57:18;;;;;;;6.20;4.07;;;0.70;99.90;;;;;;4996829;28;20477;-71
2023/03/16 04:59:46;;;;;;;5.60;3.60;;;0.70;99.90;;;;;;4998675;28;20566;-72
2023/03/16 05:02:16;;;;;;;4.87;4.37;;;0.60;99.90;;;;;;4992349;28;20488;-72
2023/03/16 05:04:44;;;;;;;7.83;4.47;;;0.60;99.90;;;;;;4992351;28;21094;-72
2023/03/16 05:07:12;;;;;;;5.20;4.50;;;0.60;99.90;;;;;;4994592;28;20475;-72
2023/03/16 05:09:40;;;;;;;9.43;4.27;;;0.60;99.90;;;;;;4995198;28;20496;-72
2023/03/16 05:12:09;;;;;;;4.80;4.30;;;0.60;99.90;;;;;;4992264;28;20480;-71
2023/03/16 05:14:37;;;;;;;6.77;4.50;;;0.60;99.90;;;;;;4998995;28;20518;-72
2023/03/16 05:17:05;;;;;;;6.13;4.17;;;0.60;99.90;;;;;;4992036;28;20476;-71
2023/03/16 05:19:34;;;;;;;5.47;4.30;;;0.60;99.90;;;;;;4989869;28;20496;-72
2023/03/16 05:22:02;;;;;;;5.33;4.23;;;0.70;99.90;;;;;;4991229;28;20476;-72
2023/03/16 05:24:30;;;;;;;4.80;4.00;;;0.70;99.90;;;;;;4995764;28;20658;-71
2023/03/16 05:26:58;;;;;;;6.43;3.93;;;0.60;99.90;;;;;;4993104;28;21008;-72
2023/03/16 05:29:26;;;;;;;5.10;4.03;;;0.60;99.90;;;;;;4996888;28;20495;-72
2023/03/16 05:31:54;;;;;;;6.20;3.53;;;0.70;99.90;;;;;;4990312;28;20498;-72
2023/03/16 05:34:22;;;;;;;6.60;3.70;;;0.70;99.90;;;;;;4993962;28;20860;-72
2023/03/16 05:36:51;;;;;;;4.80;3.80;;;0.70;99.90;;;;;;4989799;28;20477;-71
2023/03/16 05:39:19;;;;;;;4.43;3.80;;;0.70;99.90;;;;;;4986836;28;20483;-72
2023/03/16 05:41:47;;;;;;;4.50;3.70;;;0.70;99.90;;;;;;4988831;28;20496;-71
2023/03/16 05:44:15;;;;;;;5.57;4.20;;;0.80;99.90;;;;;;4989864;28;20484;-71
2023/03/16 05:46:44;;;;;;;5.30;3.50;;;0.80;99.90;;;;;;4992755;28;20500;-71
2023/03/16 05:49:12;;;;;;;3.90;3.50;;;0.80;99.90;;;;;;4989632;28;20499;-71
2023/03/16 05:51:40;;;;;;;7.60;4.07;;;0.80;99.90;;;;;;4986509;28;21025;-71
2023/03/16 05:54:10;;;;;;;5.27;3.73;;;0.90;99.90;;;;;;4985778;28;20691;-72
2023/03/16 05:56:37;;;;;;;4.90;3.43;;;0.90;99.90;;;;;;4988994;28;21810;-71
2023/03/16 05:59:05;;;;;;;3.90;3.57;;;0.90;99.90;;;;;;4981857;28;21587;-71
2023/03/16 06:01:34;;;;;;;6.03;4.00;;;0.90;99.90;;;;;;4988455;28;20508;-71
2023/03/16 06:04:04;;;;;;;5.10;3.63;;;1.00;99.90;;;;;;4991053;28;20464;-71
2023/03/16 06:06:32;;;;;;;8.30;3.90;;;1.00;99.90;;;;;;4987996;28;20488;-71
2023/03/16 06:09:00;;;;;;;4.20;3.80;;;1.00;99.90;;;;;;4994802;28;20511;-71
2023/03/16 06:11:31;;;;;;;6.07;3.80;;;1.10;99.90;;;;;;4983666;28;20488;-71
2023/03/16 06:13:59;;;;;;;6.73;3.70;;;1.10;99.90;;;;;;4981826;28;20968;-71
2023/03/16 06:16:27;;;;;;;4.43;3.80;;;1.10;99.90;;;;;;4981351;28;22608;-71
2023/03/16 06:18:56;;;;;;;4.00;3.40;;;1.10;99.90;;;;;;4982699;28;20598;-71
2023/03/16 06:21:26;;;;;;;6.30;3.70;;;1.20;99.90;;;;;;4986894;28;21199;-70
2023/03/16 06:23:54;;;;;;;5.20;3.50;;;1.20;99.90;;;;;;4989236;28;20474;-71
2023/03/16 06:26:22;;;;;;;4.57;3.70;;;1.20;99.90;;;;;;4991470;28;20495;-71
2023/03/16 06:28:52;;;;;;;4.50;3.50;;;1.20;99.90;;;;;;4989387;28;20846;-71
2023/03/16 06:31:19;;;;;;;4.13;3.67;;;1.20;99.90;;;;;;4985748;28;20493;-71
2023/03/16 06:33:47;;;;;;;6.33;4.03;;;1.20;99.90;;;;;;4988324;28;20996;-71
2023/03/16 06:36:15;;;;;;;6.00;3.90;;;1.20;99.90;;;;;;4985662;28;20497;-71
2023/03/16 06:38:43;;;;;;;4.93;4.10;;;1.30;99.90;;;;;;4988850;28;20479;-71
2023/03/16 06:41:11;;;;;;;5.00;3.47;;;1.30;99.90;;;;;;4991771;28;20500;-72
2023/03/16 06:43:39;;;;;;;4.80;3.73;;;1.40;99.90;;;;;;4986969;28;20487;-71
2023/03/16 06:46:09;;;;;;;7.50;3.77;;;1.50;99.90;;;;;;4986304;28;20500;-71
2023/03/16 06:48:37;;;;;;;5.10;3.47;;;1.50;99.90;;;;;;4993881;28;20472;-71
2023/03/16 06:51:06;;;;;;;5.43;4.93;;;1.50;99.90;;;;;;5000699;28;20491;-71
2023/03/16 06:53:34;;;;;;;5.00;3.70;;;1.50;99.90;;;;;;5002552;28;20464;-72
2023/03/16 06:56:02;;;;;;;4.70;3.87;;;1.50;99.90;;;;;;5002660;28;21104;-72
2023/03/16 06:58:30;;;;;;;7.90;4.70;;;1.60;99.90;;;;;;5002357;28;20468;-71
2023/03/16 07:01:02;;;;;;;4.73;3.90;;;1.60;99.90;;;;;;4999864;28;20503;-71
2023/03/16 07:03:31;;;;;;;5.90;3.97;;;1.60;99.90;;;;;;4997231;28;20466;-70
2023/03/16 07:06:00;;;;;;;4.20;3.50;;;1.60;99.90;;;;;;5001546;28;20541;-71
2023/03/16 07:08:28;;;;;;;7.43;3.63;;;1.60;99.90;;;;;;4992761;28;20475;-71
2023/03/16 07:10:56;;;;;;;4.73;3.83;;;1.60;99.90;;;;;;4994405;28;20990;-72
2023/03/16 07:13:24;;;;;;;5.87;3.30;;;1.60;99.90;;;;;;4994878;28;20477;-73
2023/03/16 07:15:52;;;;;;;4.90;3.90;;;1.70;99.90;;;;;;4994483;28;20476;-71
2023/03/16 07:18:21;;;;;;;5.30;4.00;;;1.70;99.90;;;;;;4995173;28;20509;-71
2023/03/16 07:20:50;;;;;;;6.67;4.97;;;1.70;99.90;;;;;;4993803;28;20484;-73
2023/03/16 07:23:18;;;;;;;6.03;3.83;;;1.80;99.90;;;;;;4993979;28;20933;-72
2023/03/16 07:25:46;;;;;;;4.83;4.33;;;1.80;99.90;;;;;;4993734;28;20856;-71
2023/03/16 07:28:14;;;;;;;7.10;4.40;;;1.80;99.90;;;;;;4998735;28;22110;-72
2023/03/16 07:30:42;;;;;;;6.57;4.10;;;1.90;99.90;;;;;;4994210;28;20483;-71
2023/03/16 07:33:29;;;;;;;8.43;4.53;;;2.00;99.90;;;;;;4993484;28;20830;-71
2023/03/16 07:35:58;;;;;;;5.10;3.83;;;2.10;99.90;;;;;;4995001;28;20487;-71
2023/03/16 07:38:26;;;;;;;5.07;3.80;;;2.10;99.90;;;;;;4996080;28;20823;-71
2023/03/16 07:40:54;;;;;;;5.33;4.27;;;2.20;99.90;;;;;;4993930;28;20530;-71
2023/03/16 07:43:22;;;;;;;6.57;4.10;;;2.30;99.90;;;;;;4995720;28;20487;-70
2023/03/16 07:45:51;;;;;;;6.60;4.20;;;2.30;99.90;;;;;;4998427;28;20468;-68
2023/03/16 07:48:20;;;;;;;4.00;3.60;;;2.40;99.90;;;;;;5002569;28;20477;-68
2023/03/16 07:50:49;;;;;;;5.17;4.03;;;2.40;99.90;;;;;;5000352;28;20491;-67
2023/03/16 07:53:19;;;;;;;4.40;3.50;;;2.50;99.90;;;;;;4999395;28;20473;-68
2023/03/16 07:55:47;;;;;;;4.70;3.63;;;2.50;99.90;;;;;;5002177;28;20822;-68
2023/03/16 07:58:15;;;;;;;4.97;3.67;;;2.60;99.90;;;;;;5002748;28;20480;-68
2023/03/16 08:00:42;;;;;;;7.77;3.97;;;2.60;99.90;;;;;;4997526;28;20508;-69
2023/03/16 08:03:10;;;;;;;5.50;3.43;;;2.70;99.90;;;;;;5002750;28;20954;-68
2023/03/16 08:05:38;;;;;;;5.33;3.60;;;2.70;99.90;;;;;;5001456;28;21089;-69
2023/03/16 08:08:08;;;;;;;5.00;3.57;;;2.80;99.90;;;;;;5000054;28;20497;-70
2023/03/16 08:10:37;;;;;;;3.73;3.40;;;2.90;99.90;;;;;;4999097;28;20496;-68
2023/03/16 08:13:05;;;;;;;3.70;3.23;;;2.90;99.90;;;;;;5000493;28;20470;-70
2023/03/16 08:15:33;;;;;;;4.97;3.50;;;3.00;99.90;;;;;;5000890;28;20502;-68
2023/03/16 08:18:02;;;;;;;3.60;3.13;;;3.10;99.90;;;;;;5000540;28;20927;-69
2023/03/16 08:20:30;;;;;;;5.43;3.50;;;3.20;99.90;;;;;;4999324;28;20485;-68
2023/03/16 08:23:01;;;;;;;5.93;3.80;;;3.30;99.90;;;;;;4999364;28;20470;-69
2023/03/16 08:25:28;;;;;;;3.60;3.30;;;3.30;99.90;;;;;;4999642;28;20465;-70
2023/03/16 08:27:58;;;;;;;6.30;3.60;;;3.40;99.90;;;;;;4998957;28;20495;-69
2023/03/16 08:30:26;;;;;;;4.43;3.30;;;3.50;99.90;;;;;;4996629;28;20500;-68
2023/03/16 08:32:56;;;;;;;3.63;3.10;;;3.60;99.90;;;;;;5001302;28;20981;-69
2023/03/16 08:35:24;;;;;;;4.53;3.00;;;3.70;99.90;;;;;;4994977;28;20473;-68
2023/03/16 08:37:53;;;;;;;3.43;2.93;;;3.70;99.90;;;;;;5000708;28;20552;-68
2023/03/16 08:40:24;;;;;;;5.70;3.43;;;3.70;99.90;;;;;;4995646;28;20485;-69
2023/03/16 08:42:53;;;;;;;3.93;3.27;;;3.80;99.90;;;;;;4996178;28;20491;-69
2023/03/16 08:45:23;;;;;;;6.67;3.23;;;3.90;99.90;;;;;;4996174;28;20972;-68
2023/03/16 08:47:51;;;;;;;5.50;3.77;;;3.90;99.90;;;;;;4998970;28;20495;-69
2023/03/16 08:50:19;;;;;;;5.07;3.20;;;4.00;99.90;;;;;;4998060;28;21005;-69
2023/03/16 08:52:48;;;;;;;3.53;3.23;;;4.10;99.90;;;;;;4997790;28;20491;-69
2023/03/16 08:55:16;;;;;;;4.37;3.40;;;4.20;99.90;;;;;;4994441;28;20468;-69
2023/03/16 08:57:45;;;;;;;4.97;3.10;;;4.20;99.90;;;;;;4999621;28;20473;-69
2023/03/16 09:00:14;;;;;;;4.60;3.00;;;4.30;99.90;;;;;;4997385;28;20502;-69
2023/03/16 09:02:44;;;;;;;5.53;3.63;;;4.40;99.90;;;;;;4998046;28;20681;-69
2023/03/16 09:05:14;;;;;;;5.40;3.93;;;4.50;99.90;;;;;;5000540;28;20479;-68
2023/03/16 09:07:42;;;;;;;4.60;3.10;;;4.60;99.90;;;;;;4998580;28;20496;-68
2023/03/16 09:10:14;;;;;;;5.00;3.10;;;4.70;99.90;;;;;;4997495;28;21020;-68
2023/03/16 09:12:43;;;;;;;4.50;3.00;;;4.80;99.90;;;;;;4992168;28;20511;-68
2023/03/16 09:15:13;;;;;;;3.27;2.43;;;4.90;99.90;;;;;;4991932;28;20548;-68
2023/03/16 09:17:44;;;;;;;4.30;2.47;;;5.10;99.90;;;;;;4997177;28;20847;-68
2023/03/16 09:20:14;;;;;;;3.93;2.90;;;5.20;99.90;;;;;;4999220;28;20500;-65
2023/03/16 09:22:52;;;;;;;5.13;3.10;;;5.30;99.90;;;;;;4997230;28;20515;-64
2023/03/16 09:25:20;;;;;;;2.47;2.27;;;5.40;99.90;;;;;;4994301;28;20483;-68
2023/03/16 09:27:49;;;;;;;2.93;2.63;;;5.50;99.90;;;;;;4998366;28;20493;-66
2023/03/16 09:30:17;;;;;;;4.60;2.80;;;5.60;99.90;;;;;;4996708;28;20592;-66
2023/03/16 09:32:47;;;;;;;6.07;2.60;;;5.70;99.90;;;;;;4994513;28;20484;-65
2023/03/16 09:35:16;;;;;;;6.20;2.90;;;5.70;99.90;;;;;;4997049;28;20972;-67
2023/03/16 09:37:45;;;;;;;3.57;2.70;;;5.80;99.90;;;;;;4996693;28;21069;-67
2023/03/16 09:40:34;;;;;;;5.10;2.50;;;5.90;99.90;;;;;;4998933;28;20648;-66
2023/03/16 09:43:18;;;;;;;4.83;2.40;;;6.00;99.90;;;;;;4998145;28;20522;-67
2023/03/16 09:45:53;;;;;;;4.33;2.50;;;6.10;99.90;;;;;;4984225;28;20505;-68
2023/03/16 09:48:24;;;;;;;2.40;2.20;;;6.20;99.90;;;;;;4998870;28;20513;-67
2023/03/16 09:50:54;;;;;;;2.63;2.20;;;6.30;99.90;;;;;;4997060;28;20963;-66
2023/03/16 09:53:25;;;;;;;3.63;2.30;;;6.40;99.90;;;;;;4994683;28;21272;-65
2023/03/16 09:56:17;;;;;;;4.53;2.43;;;6.50;99.90;;;;;;4999406;28;20476;-67
2023/03/16 09:59:09;;;;;;;3.67;2.07;;;6.60;99.90;;;;;;4995320;28;20476;-67
2023/03/16 10:05:08;;;;;;;2.23;1.93;;;6.90;99.90;;;;;;4992406;28;20861;-67
2023/03/16 10:07:46;;;;;;;4.00;1.90;;;7.10;99.90;;;;;;4994419;28;20502;-65
2023/03/16 10:10:26;;;;;;;2.63;1.87;;;7.20;99.90;;;;;;4999047;28;20495;-66
2023/03/16 10:12:59;;;;;;;4.20;1.97;;;7.30;99.90;;;;;;4994391;28;20600;-65
2023/03/16 10:15:32;;;;;;;4.93;2.13;;;7.40;99.90;;;;;;4996166;28;20479;-65
2023/03/16 10:18:05;;;;;;;2.20;1.73;;;7.50;99.90;;;;;;4997309;28;20968;-66
2023/03/16 10:20:35;;;;;;;2.00;1.60;;;7.60;99.90;;;;;;4997642;28;20575;-66
2023/03/16 10:23:16;;;;;;;1.83;1.70;;;7.70;99.90;;;;;;4995648;28;20475;-65
2023/03/16 10:25:47;;;;;;;3.30;1.93;;;7.70;99.90;;;;;;4997512;28;20489;-66
2023/03/16 10:28:17;;;;;;;3.17;1.80;;;7.80;99.90;;;;;;4992552;28;20492;-65
2023/03/16 10:30:45;;;;;;;4.63;2.03;;;7.90;99.90;;;;;;4995751;28;20484;-66
2023/03/16 10:33:22;;;;;;;4.27;1.80;;;8.10;99.90;;;;;;4993855;28;20490;-66
2023/03/16 10:35:55;;;;;;;2.93;1.60;;;8.10;99.90;;;;;;4996835;28;20481;-63
2023/03/16 10:38:31;;;;;;;3.00;1.77;;;8.20;99.90;;;;;;4991205;28;20559;-65
2023/03/16 10:41:00;;;;;;;2.60;1.40;;;8.30;98.50;;;;;;4992211;28;20499;-65
2023/03/16 10:43:29;;;;;;;2.83;1.50;;;8.30;92.90;;;;;;4996542;28;20484;-65
2023/03/16 10:46:01;;;;;;;1.70;1.20;;;8.40;97.50;;;;;;4984502;28;20477;-65
2023/03/16 10:48:33;;;;;;;2.40;1.30;;;8.50;86.30;;;;;;4991721;28;20488;-64
2023/03/16 10:51:07;;;;;;;2.60;1.30;;;8.60;76.80;;;;;;4996272;28;20507;-66
2023/03/16 10:53:40;;;;;;;3.20;1.57;;;8.70;75.60;;;;;;4994659;28;20469;-69
2023/03/16 10:56:18;;;;;;;1.50;1.20;;;8.90;67.50;;;;;;4993744;28;20468;-65
2023/03/16 10:58:47;;;;;;;2.10;1.20;;;9.00;75.90;;;;;;4989306;28;20567;-65
2023/03/16 11:01:19;;;;;;;3.23;1.33;;;9.10;63.50;;;;;;4995202;28;20491;-66
2023/03/16 11:03:50;;;;;;;1.20;1.10;;;9.10;60.00;;;;;;4997101;28;21076;-66
2023/03/16 11:06:29;;;;;;;1.33;1.07;;;9.20;56.50;;;;;;4993636;28;20492;-65
2023/03/16 11:09:07;;;;;;;1.70;1.03;;;9.10;54.90;;;;;;4994488;28;20484;-65
2023/03/16 11:11:36;;;;;;;2.23;1.20;;;9.20;52.00;;;;;;4989292;28;20489;-65
2023/03/16 11:14:12;;;;;;;1.33;1.00;;;9.30;52.90;;;;;;4992312;28;20468;-65
2023/03/16 11:16:46;;;;;;;2.70;1.93;;;9.40;53.30;;;;;;4995457;28;20472;-65
2023/03/16 11:19:21;;;;;;;1.33;0.93;;;9.40;50.00;;;;;;4991487;28;20496;-66
2023/03/16 11:21:56;;;;;;;1.70;1.00;;;9.50;50.20;;;;;;4990729;28;20502;-66
2023/03/16 11:24:29;;;;;;;1.93;1.10;;;9.60;51.30;;;;;;4994109;28;20934;-65
2023/03/16 11:27:01;;;;;;;1.37;1.00;;;9.80;48.30;;;;;;4993227;28;20499;-66
2023/03/16 11:29:44;;;;;;;2.20;1.00;;;9.80;46.30;;;;;;4994541;28;20500;-66
2023/03/16 11:32:19;;;;;;;1.07;0.97;;;9.90;43.00;;;;;;4991398;28;20984;-66
2023/03/16 11:34:47;;;;;;;1.80;0.93;;;10.00;38.40;;;;;;4996861;28;20471;-65
2023/03/16 11:37:32;;;;;;;1.97;1.23;;;10.00;36.90;;;;;;5001219;28;20472;-66
2023/03/16 11:40:13;;;;;;;1.93;1.30;;;10.00;37.90;;;;;;4997921;28;20503;-65
2023/03/16 11:42:51;;;;;;;2.30;1.10;;;10.10;38.80;;;;;;4997522;28;20520;-66
2023/03/16 11:45:27;;;;;;;0.90;0.87;;;10.30;37.40;;;;;;4996036;28;20479;-67
2023/03/16 11:48:18;;;;;;;3.30;1.30;;;10.40;36.70;;;;;;5001160;28;20496;-66
2023/03/16 11:50:59;;;;;;;2.07;1.00;;;10.50;37.90;;;;;;4996718;28;20497;-66
2023/03/16 11:53:51;;;;;;;3.30;1.20;;;10.70;37.10;;;;;;4998992;28;20474;-66
2023/03/16 11:56:31;;;;;;;0.93;0.90;;;10.80;36.20;;;;;;5000089;28;20471;-66
2023/03/16 11:59:14;;;;;;;1.17;0.90;;;10.90;36.10;;;;;;5000366;28;20946;-66
2023/03/16 12:01:55;;;;;;;1.30;0.97;;;11.00;35.10;;;;;;4998574;28;20515;-65
2023/03/16 12:04:48;;;;;;;1.10;0.80;;;11.00;37.30;;;;;;4999084;28;20480;-67
2023/03/16 12:07:30;;;;;;;1.77;1.27;;;11.20;36.30;;;;;;5002418;28;20551;-63
2023/03/16 12:10:22;;;;;;;3.90;1.00;;;11.40;35.30;;;;;;5003039;28;20523;-64
2023/03/16 12:13:16;;;;;;;1.27;0.80;;;11.60;37.50;;;;;;4998341;28;20500;-64
2023/03/16 12:15:47;;;;;;;3.00;1.10;;;11.80;36.50;;;;;;5002594;28;20472;-64
2023/03/16 12:18:20;;;;;;;1.67;0.87;;;11.90;33.90;;;;;;4998635;28;20486;-64
2023/03/16 12:20:53;;;;;;;2.37;1.00;;;12.00;34.30;;;;;;5001417;28;20492;-64
2023/03/16 12:23:24;;;;;;;1.43;1.03;;;11.90;31.00;;;;;;5001675;28;20977;-64
2023/03/16 12:25:59;;;;;;;2.40;0.80;;;11.90;31.10;;;;;;5002547;28;20480;-64
2023/03/16 12:28:29;;;;;;;1.50;0.90;;;12.00;30.90;;;;;;4997928;28;20480;-64
2023/03/16 12:31:04;;;;;;;3.13;1.20;;;12.30;32.30;;;;;;5001281;28;20493;-65
2023/03/16 12:33:48;;;;;;;2.00;0.93;;;12.40;30.30;;;;;;4999868;28;20859;-64
2023/03/16 12:36:39;;;;;;;1.83;1.00;;;12.60;31.10;;;;;;4998538;28;20472;-67
2023/03/16 12:39:12;;;;;;;3.70;1.30;;;12.70;30.20;;;;;;4999999;28;21481;-65
2023/03/16 12:41:53;;;;;;;1.57;1.23;;;12.80;31.40;;;;;;4999313;28;20496;-65
2023/03/16 12:44:26;;;;;;;1.53;1.00;;;13.30;31.10;;;;;;4989359;28;20483;-65
2023/03/16 12:46:59;;;;;;;1.27;0.70;;;13.90;30.00;;;;;;4988814;28;20509;-65
2023/03/16 12:49:31;;;;;;;2.10;0.90;;;14.60;30.80;;;;;;4985911;28;20509;-64
2023/03/16 12:52:01;;;;;;;2.20;1.07;;;15.50;29.00;;;;;;4988213;28;20487;-65
2023/03/16 12:54:28;;;;;;;1.77;0.90;;;16.50;28.80;;;;;;4978423;28;20483;-64
2023/03/16 12:57:04;;;;;;;1.33;0.80;;;17.70;26.50;;;;;;4980448;28;20476;-64
2023/03/16 12:59:41;;;;;;;1.00;0.70;;;18.80;24.80;;;;;;4979626;28;20500;-65
2023/03/16 13:02:16;;;;;;;2.87;1.10;;;19.70;25.10;;;;;;4975115;28;20491;-64
2023/03/16 13:04:46;;;;;;;1.27;0.97;;;20.60;22.10;;;;;;4976205;28;20497;-65
2023/03/16 13:07:22;;;;;;;2.07;1.20;;;20.80;21.30;;;;;;4981083;28;20883;-65
2023/03/16 13:09:53;;;;;;;2.07;1.00;;;20.80;20.60;;;;;;4983682;28;20861;-65
2023/03/16 13:12:29;;;;;;;2.10;1.07;;;21.00;22.30;;;;;;4981219;28;20499;-65
2023/03/16 13:14:58;;;;;;;1.20;0.70;;;21.50;21.80;;;;;;4984669;28;20478;-66
2023/03/16 13:17:29;;;;;;;2.27;1.20;;;22.10;19.40;;;;;;4974561;28;20487;-65